sensor_id;sensor_type;location;lat;lon;timestamp;P1;durP1;ratioP1;P2;durP2;ratioP2
57107;SDS011;42987;52.916;6.542;2023-07-08T00:00:22;6.00;;;4.25;;
57107;SDS011;42987;52.916;6.542;2023-07-08T00:02:49;5.88;;;4.75;;
57107;SDS011;42987;52.916;6.542;2023-07-08T00:05:17;6.03;;;4.93;;
57107;SDS011;42987;52.916;6.542;2023-07-08T00:07:44;5.93;;;4.80;;
57107;SDS011;42987;52.916;6.542;2023-07-08T00:12:51;8.00;;;4.82;;
57107;SDS011;42987;52.916;6.542;2023-07-08T00:15:19;6.07;;;4.88;;
57107;SDS011;42987;52.916;6.542;2023-07-08T00:17:49;6.95;;;5.03;;
57107;SDS011;42987;52.916;6.542;2023-07-08T00:22:54;7.82;;;5.07;;
57107;SDS011;42987;52.916;6.542;2023-07-08T00:25:20;6.78;;;4.70;;
57107;SDS011;42987;52.916;6.542;2023-07-08T00:27:46;7.13;;;4.85;;
57107;SDS011;42987;52.916;6.542;2023-07-08T00:32:47;6.22;;;4.72;;
57107;SDS011;42987;52.916;6.542;2023-07-08T00:35:19;6.63;;;4.47;;
57107;SDS011;42987;52.916;6.542;2023-07-08T00:37:49;7.53;;;5.18;;
57107;SDS011;42987;52.916;6.542;2023-07-08T00:40:19;6.70;;;4.63;;
57107;SDS011;42987;52.916;6.542;2023-07-08T00:42:46;8.70;;;5.03;;
57107;SDS011;42987;52.916;6.542;2023-07-08T00:45:15;7.45;;;5.07;;
57107;SDS011;42987;52.916;6.542;2023-07-08T00:47:47;6.32;;;5.15;;
57107;SDS011;42987;52.916;6.542;2023-07-08T00:50:15;7.22;;;4.97;;
57107;SDS011;42987;52.916;6.542;2023-07-08T00:52:42;7.75;;;5.13;;
57107;SDS011;42987;52.916;6.542;2023-07-08T00:55:07;6.70;;;4.88;;
57107;SDS011;42987;52.916;6.542;2023-07-08T00:57:35;7.25;;;5.05;;
57107;SDS011;42987;52.916;6.542;2023-07-08T01:02:40;8.68;;;5.50;;
57107;SDS011;42987;52.916;6.542;2023-07-08T01:05:15;6.72;;;4.95;;
57107;SDS011;42987;52.916;6.542;2023-07-08T01:07:46;8.07;;;5.18;;
57107;SDS011;42987;52.916;6.542;2023-07-08T01:10:19;9.68;;;5.47;;
57107;SDS011;42987;52.916;6.542;2023-07-08T01:12:51;7.07;;;5.18;;
57107;SDS011;42987;52.916;6.542;2023-07-08T01:15:23;8.90;;;5.50;;
57107;SDS011;42987;52.916;6.542;2023-07-08T01:17:51;8.38;;;5.75;;
57107;SDS011;42987;52.916;6.542;2023-07-08T01:20:18;8.43;;;4.95;;
57107;SDS011;42987;52.916;6.542;2023-07-08T01:22:44;6.95;;;5.35;;
57107;SDS011;42987;52.916;6.542;2023-07-08T01:25:10;8.15;;;5.35;;
57107;SDS011;42987;52.916;6.542;2023-07-08T01:27:39;8.27;;;5.30;;
57107;SDS011;42987;52.916;6.542;2023-07-08T01:30:08;7.90;;;5.55;;
57107;SDS011;42987;52.916;6.542;2023-07-08T01:32:37;6.63;;;5.40;;
57107;SDS011;42987;52.916;6.542;2023-07-08T01:35:08;7.30;;;5.60;;
57107;SDS011;42987;52.916;6.542;2023-07-08T01:37:40;8.27;;;5.80;;
57107;SDS011;42987;52.916;6.542;2023-07-08T01:40:28;9.50;;;5.57;;
57107;SDS011;42987;52.916;6.542;2023-07-08T01:42:59;8.23;;;5.47;;
57107;SDS011;42987;52.916;6.542;2023-07-08T01:45:27;10.30;;;5.97;;
57107;SDS011;42987;52.916;6.542;2023-07-08T01:48:12;7.93;;;5.82;;
57107;SDS011;42987;52.916;6.542;2023-07-08T01:51:23;6.85;;;5.88;;
57107;SDS011;42987;52.916;6.542;2023-07-08T01:56:00;6.97;;;5.40;;
57107;SDS011;42987;52.916;6.542;2023-07-08T01:58:27;8.82;;;6.05;;
57107;SDS011;42987;52.916;6.542;2023-07-08T02:00:53;7.70;;;5.63;;
57107;SDS011;42987;52.916;6.542;2023-07-08T02:03:19;9.25;;;5.88;;
57107;SDS011;42987;52.916;6.542;2023-07-08T02:05:46;7.25;;;6.05;;
57107;SDS011;42987;52.916;6.542;2023-07-08T02:08:12;7.53;;;5.40;;
57107;SDS011;42987;52.916;6.542;2023-07-08T02:10:38;8.35;;;6.22;;
57107;SDS011;42987;52.916;6.542;2023-07-08T02:13:05;6.95;;;5.63;;
57107;SDS011;42987;52.916;6.542;2023-07-08T02:15:31;8.27;;;5.60;;
57107;SDS011;42987;52.916;6.542;2023-07-08T02:17:57;9.18;;;6.32;;
57107;SDS011;42987;52.916;6.542;2023-07-08T02:20:23;7.40;;;5.95;;
57107;SDS011;42987;52.916;6.542;2023-07-08T02:22:49;8.13;;;5.93;;
57107;SDS011;42987;52.916;6.542;2023-07-08T02:25:15;9.45;;;6.70;;
57107;SDS011;42987;52.916;6.542;2023-07-08T02:27:41;8.60;;;6.00;;
57107;SDS011;42987;52.916;6.542;2023-07-08T02:30:07;7.20;;;6.15;;
57107;SDS011;42987;52.916;6.542;2023-07-08T02:32:34;9.23;;;6.18;;
57107;SDS011;42987;52.916;6.542;2023-07-08T02:35:03;7.70;;;6.63;;
57107;SDS011;42987;52.916;6.542;2023-07-08T02:37:30;9.13;;;6.10;;
57107;SDS011;42987;52.916;6.542;2023-07-08T02:39:57;9.05;;;6.63;;
57107;SDS011;42987;52.916;6.542;2023-07-08T02:42:23;9.70;;;6.75;;
57107;SDS011;42987;52.916;6.542;2023-07-08T02:44:49;8.45;;;6.18;;
57107;SDS011;42987;52.916;6.542;2023-07-08T02:47:14;7.45;;;5.65;;
57107;SDS011;42987;52.916;6.542;2023-07-08T02:49:40;7.78;;;6.97;;
57107;SDS011;42987;52.916;6.542;2023-07-08T02:52:06;9.45;;;6.60;;
57107;SDS011;42987;52.916;6.542;2023-07-08T02:54:32;9.00;;;6.65;;
57107;SDS011;42987;52.916;6.542;2023-07-08T02:56:57;7.72;;;6.00;;
57107;SDS011;42987;52.916;6.542;2023-07-08T02:59:23;7.97;;;6.88;;
57107;SDS011;42987;52.916;6.542;2023-07-08T03:01:49;11.00;;;6.88;;
57107;SDS011;42987;52.916;6.542;2023-07-08T03:04:15;8.55;;;6.75;;
57107;SDS011;42987;52.916;6.542;2023-07-08T03:06:44;7.97;;;6.38;;
57107;SDS011;42987;52.916;6.542;2023-07-08T03:09:11;8.43;;;6.88;;
57107;SDS011;42987;52.916;6.542;2023-07-08T03:11:38;8.55;;;6.82;;
57107;SDS011;42987;52.916;6.542;2023-07-08T03:14:06;9.38;;;7.13;;
57107;SDS011;42987;52.916;6.542;2023-07-08T03:16:32;7.95;;;7.03;;
57107;SDS011;42987;52.916;6.542;2023-07-08T03:18:58;10.00;;;7.10;;
57107;SDS011;42987;52.916;6.542;2023-07-08T03:21:24;8.25;;;6.50;;
57107;SDS011;42987;52.916;6.542;2023-07-08T03:23:50;8.38;;;6.70;;
57107;SDS011;42987;52.916;6.542;2023-07-08T03:26:21;8.52;;;7.30;;
57107;SDS011;42987;52.916;6.542;2023-07-08T03:28:48;8.63;;;6.88;;
57107;SDS011;42987;52.916;6.542;2023-07-08T03:31:15;7.40;;;6.65;;
57107;SDS011;42987;52.916;6.542;2023-07-08T03:33:42;9.73;;;7.18;;
57107;SDS011;42987;52.916;6.542;2023-07-08T03:36:12;8.60;;;7.10;;
57107;SDS011;42987;52.916;6.542;2023-07-08T03:38:48;9.25;;;7.45;;
57107;SDS011;42987;52.916;6.542;2023-07-08T03:41:18;9.48;;;7.45;;
57107;SDS011;42987;52.916;6.542;2023-07-08T03:43:44;11.43;;;7.32;;
57107;SDS011;42987;52.916;6.542;2023-07-08T03:46:10;8.02;;;6.57;;
57107;SDS011;42987;52.916;6.542;2023-07-08T03:48:37;8.70;;;7.22;;
57107;SDS011;42987;52.916;6.542;2023-07-08T03:51:03;7.97;;;6.38;;
57107;SDS011;42987;52.916;6.542;2023-07-08T03:53:30;10.27;;;7.20;;
57107;SDS011;42987;52.916;6.542;2023-07-08T03:55:55;8.48;;;7.28;;
57107;SDS011;42987;52.916;6.542;2023-07-08T03:58:21;8.45;;;7.22;;
57107;SDS011;42987;52.916;6.542;2023-07-08T04:00:47;8.68;;;6.78;;
57107;SDS011;42987;52.916;6.542;2023-07-08T04:03:13;8.45;;;7.55;;
57107;SDS011;42987;52.916;6.542;2023-07-08T04:05:39;7.38;;;6.55;;
57107;SDS011;42987;52.916;6.542;2023-07-08T04:08:04;9.70;;;7.22;;
57107;SDS011;42987;52.916;6.542;2023-07-08T04:10:30;8.45;;;7.43;;
57107;SDS011;42987;52.916;6.542;2023-07-08T04:12:56;8.18;;;7.18;;
57107;SDS011;42987;52.916;6.542;2023-07-08T04:15:22;8.10;;;6.88;;
57107;SDS011;42987;52.916;6.542;2023-07-08T04:17:50;9.73;;;7.28;;
57107;SDS011;42987;52.916;6.542;2023-07-08T04:20:17;8.45;;;7.32;;
57107;SDS011;42987;52.916;6.542;2023-07-08T04:22:43;9.18;;;7.20;;
57107;SDS011;42987;52.916;6.542;2023-07-08T04:25:10;8.30;;;7.40;;
57107;SDS011;42987;52.916;6.542;2023-07-08T04:27:37;8.00;;;7.20;;
57107;SDS011;42987;52.916;6.542;2023-07-08T04:30:04;8.60;;;7.28;;
57107;SDS011;42987;52.916;6.542;2023-07-08T04:32:31;8.55;;;6.72;;
57107;SDS011;42987;52.916;6.542;2023-07-08T04:34:56;9.73;;;7.25;;
57107;SDS011;42987;52.916;6.542;2023-07-08T04:37:22;8.32;;;6.90;;
57107;SDS011;42987;52.916;6.542;2023-07-08T04:39:48;7.85;;;6.35;;
57107;SDS011;42987;52.916;6.542;2023-07-08T04:42:14;9.93;;;7.47;;
57107;SDS011;42987;52.916;6.542;2023-07-08T04:44:43;8.50;;;6.90;;
57107;SDS011;42987;52.916;6.542;2023-07-08T04:47:09;8.60;;;6.53;;
57107;SDS011;42987;52.916;6.542;2023-07-08T04:49:37;9.40;;;6.80;;
57107;SDS011;42987;52.916;6.542;2023-07-08T04:52:03;7.40;;;6.63;;
57107;SDS011;42987;52.916;6.542;2023-07-08T04:54:29;6.95;;;6.05;;
57107;SDS011;42987;52.916;6.542;2023-07-08T04:56:57;9.10;;;6.68;;
57107;SDS011;42987;52.916;6.542;2023-07-08T04:59:24;8.40;;;6.45;;
57107;SDS011;42987;52.916;6.542;2023-07-08T05:01:51;8.50;;;6.60;;
57107;SDS011;42987;52.916;6.542;2023-07-08T05:04:18;9.52;;;6.53;;
57107;SDS011;42987;52.916;6.542;2023-07-08T05:06:46;8.57;;;6.30;;
57107;SDS011;42987;52.916;6.542;2023-07-08T05:09:12;10.15;;;6.43;;
57107;SDS011;42987;52.916;6.542;2023-07-08T05:11:38;7.70;;;6.82;;
57107;SDS011;42987;52.916;6.542;2023-07-08T05:14:04;6.63;;;5.82;;
57107;SDS011;42987;52.916;6.542;2023-07-08T05:16:32;7.88;;;6.50;;
57107;SDS011;42987;52.916;6.542;2023-07-08T05:18:59;8.98;;;6.85;;
57107;SDS011;42987;52.916;6.542;2023-07-08T05:21:26;7.03;;;5.53;;
57107;SDS011;42987;52.916;6.542;2023-07-08T05:23:54;9.05;;;6.25;;
57107;SDS011;42987;52.916;6.542;2023-07-08T05:26:20;6.80;;;5.15;;
57107;SDS011;42987;52.916;6.542;2023-07-08T05:28:46;7.28;;;5.55;;
57107;SDS011;42987;52.916;6.542;2023-07-08T05:31:12;8.23;;;5.90;;
57107;SDS011;42987;52.916;6.542;2023-07-08T05:33:38;9.27;;;6.05;;
57107;SDS011;42987;52.916;6.542;2023-07-08T05:36:04;7.60;;;5.43;;
57107;SDS011;42987;52.916;6.542;2023-07-08T05:38:29;9.48;;;5.80;;
57107;SDS011;42987;52.916;6.542;2023-07-08T05:40:56;6.85;;;5.45;;
57107;SDS011;42987;52.916;6.542;2023-07-08T05:43:23;8.02;;;5.70;;
57107;SDS011;42987;52.916;6.542;2023-07-08T05:45:49;6.97;;;5.55;;
57107;SDS011;42987;52.916;6.542;2023-07-08T05:48:15;8.10;;;5.75;;
57107;SDS011;42987;52.916;6.542;2023-07-08T05:50:41;9.70;;;5.60;;
57107;SDS011;42987;52.916;6.542;2023-07-08T05:53:09;8.75;;;6.13;;
57107;SDS011;42987;52.916;6.542;2023-07-08T05:55:35;6.10;;;5.22;;
57107;SDS011;42987;52.916;6.542;2023-07-08T05:58:01;8.00;;;5.38;;
57107;SDS011;42987;52.916;6.542;2023-07-08T06:00:27;7.47;;;6.07;;
57107;SDS011;42987;52.916;6.542;2023-07-08T06:02:53;7.30;;;5.63;;
57107;SDS011;42987;52.916;6.542;2023-07-08T06:05:19;9.05;;;5.72;;
57107;SDS011;42987;52.916;6.542;2023-07-08T06:07:45;6.43;;;5.80;;
57107;SDS011;42987;52.916;6.542;2023-07-08T06:10:11;8.95;;;5.68;;
57107;SDS011;42987;52.916;6.542;2023-07-08T06:12:36;6.43;;;5.10;;
57107;SDS011;42987;52.916;6.542;2023-07-08T06:15:03;8.98;;;5.70;;
57107;SDS011;42987;52.916;6.542;2023-07-08T06:17:40;7.30;;;5.30;;
57107;SDS011;42987;52.916;6.542;2023-07-08T06:20:06;8.27;;;5.22;;
57107;SDS011;42987;52.916;6.542;2023-07-08T06:22:32;6.80;;;5.82;;
57107;SDS011;42987;52.916;6.542;2023-07-08T06:24:58;7.50;;;6.00;;
57107;SDS011;42987;52.916;6.542;2023-07-08T06:27:24;7.78;;;5.80;;
57107;SDS011;42987;52.916;6.542;2023-07-08T06:29:50;6.38;;;5.20;;
57107;SDS011;42987;52.916;6.542;2023-07-08T06:32:15;6.88;;;5.22;;
57107;SDS011;42987;52.916;6.542;2023-07-08T06:34:41;7.03;;;5.22;;
57107;SDS011;42987;52.916;6.542;2023-07-08T06:37:07;7.07;;;5.22;;
57107;SDS011;42987;52.916;6.542;2023-07-08T06:39:33;9.60;;;5.05;;
57107;SDS011;42987;52.916;6.542;2023-07-08T06:41:59;8.10;;;5.50;;
57107;SDS011;42987;52.916;6.542;2023-07-08T06:44:24;6.40;;;5.50;;
57107;SDS011;42987;52.916;6.542;2023-07-08T06:46:51;7.57;;;4.95;;
57107;SDS011;42987;52.916;6.542;2023-07-08T06:49:17;6.18;;;5.20;;
57107;SDS011;42987;52.916;6.542;2023-07-08T06:51:43;5.72;;;5.05;;
57107;SDS011;42987;52.916;6.542;2023-07-08T06:54:10;7.15;;;5.22;;
57107;SDS011;42987;52.916;6.542;2023-07-08T06:56:40;5.78;;;4.93;;
57107;SDS011;42987;52.916;6.542;2023-07-08T06:59:07;6.28;;;5.00;;
57107;SDS011;42987;52.916;6.542;2023-07-08T07:01:33;8.10;;;5.15;;
57107;SDS011;42987;52.916;6.542;2023-07-08T07:04:00;7.35;;;5.15;;
57107;SDS011;42987;52.916;6.542;2023-07-08T07:06:26;7.85;;;5.05;;
57107;SDS011;42987;52.916;6.542;2023-07-08T07:08:52;5.32;;;4.40;;
57107;SDS011;42987;52.916;6.542;2023-07-08T07:11:17;5.93;;;4.82;;
57107;SDS011;42987;52.916;6.542;2023-07-08T07:13:44;6.20;;;4.40;;
57107;SDS011;42987;52.916;6.542;2023-07-08T07:16:10;7.40;;;4.53;;
57107;SDS011;42987;52.916;6.542;2023-07-08T07:18:36;7.68;;;4.53;;
57107;SDS011;42987;52.916;6.542;2023-07-08T07:21:02;6.88;;;4.57;;
57107;SDS011;42987;52.916;6.542;2023-07-08T07:23:28;5.85;;;4.32;;
57107;SDS011;42987;52.916;6.542;2023-07-08T07:25:54;7.55;;;4.70;;
57107;SDS011;42987;52.916;6.542;2023-07-08T07:28:20;5.60;;;4.70;;
57107;SDS011;42987;52.916;6.542;2023-07-08T07:30:45;6.60;;;4.43;;
57107;SDS011;42987;52.916;6.542;2023-07-08T07:33:12;5.65;;;3.67;;
57107;SDS011;42987;52.916;6.542;2023-07-08T07:35:45;6.95;;;4.55;;
57107;SDS011;42987;52.916;6.542;2023-07-08T07:38:11;5.13;;;4.10;;
57107;SDS011;42987;52.916;6.542;2023-07-08T07:40:38;6.95;;;4.32;;
57107;SDS011;42987;52.916;6.542;2023-07-08T07:43:04;5.00;;;4.32;;
57107;SDS011;42987;52.916;6.542;2023-07-08T07:45:30;7.50;;;4.35;;
57107;SDS011;42987;52.916;6.542;2023-07-08T07:47:56;8.85;;;4.50;;
57107;SDS011;42987;52.916;6.542;2023-07-08T07:50:22;5.88;;;4.03;;
57107;SDS011;42987;52.916;6.542;2023-07-08T07:52:47;8.80;;;4.40;;
57107;SDS011;42987;52.916;6.542;2023-07-08T07:55:13;6.90;;;4.20;;
57107;SDS011;42987;52.916;6.542;2023-07-08T07:57:39;5.55;;;4.50;;
57107;SDS011;42987;52.916;6.542;2023-07-08T08:00:07;7.90;;;4.30;;
57107;SDS011;42987;52.916;6.542;2023-07-08T08:02:34;6.30;;;4.35;;
57107;SDS011;42987;52.916;6.542;2023-07-08T08:05:00;6.53;;;4.20;;
57107;SDS011;42987;52.916;6.542;2023-07-08T08:07:26;7.82;;;4.03;;
57107;SDS011;42987;52.916;6.542;2023-07-08T08:09:52;5.72;;;4.35;;
57107;SDS011;42987;52.916;6.542;2023-07-08T08:12:18;6.45;;;4.15;;
57107;SDS011;42987;52.916;6.542;2023-07-08T08:14:43;7.10;;;4.00;;
57107;SDS011;42987;52.916;6.542;2023-07-08T08:17:09;5.70;;;4.35;;
57107;SDS011;42987;52.916;6.542;2023-07-08T08:19:35;6.05;;;4.55;;
57107;SDS011;42987;52.916;6.542;2023-07-08T08:22:01;7.10;;;4.32;;
57107;SDS011;42987;52.916;6.542;2023-07-08T08:24:27;5.88;;;4.40;;
57107;SDS011;42987;52.916;6.542;2023-07-08T08:26:52;5.70;;;4.28;;
57107;SDS011;42987;52.916;6.542;2023-07-08T08:29:18;6.32;;;4.18;;
57107;SDS011;42987;52.916;6.542;2023-07-08T08:31:44;6.63;;;4.13;;
57107;SDS011;42987;52.916;6.542;2023-07-08T08:34:09;4.97;;;3.97;;
57107;SDS011;42987;52.916;6.542;2023-07-08T08:36:35;7.57;;;4.40;;
57107;SDS011;42987;52.916;6.542;2023-07-08T08:39:01;6.85;;;4.15;;
57107;SDS011;42987;52.916;6.542;2023-07-08T08:41:31;5.20;;;3.92;;
57107;SDS011;42987;52.916;6.542;2023-07-08T08:44:04;4.88;;;3.75;;
57107;SDS011;42987;52.916;6.542;2023-07-08T08:46:39;7.28;;;3.83;;
57107;SDS011;42987;52.916;6.542;2023-07-08T08:51:50;7.40;;;4.32;;
57107;SDS011;42987;52.916;6.542;2023-07-08T08:54:16;5.40;;;3.80;;
57107;SDS011;42987;52.916;6.542;2023-07-08T08:59:51;6.13;;;3.70;;
57107;SDS011;42987;52.916;6.542;2023-07-08T09:04:55;5.55;;;4.15;;
57107;SDS011;42987;52.916;6.542;2023-07-08T09:07:30;5.38;;;3.60;;
57107;SDS011;42987;52.916;6.542;2023-07-08T09:10:04;5.32;;;3.83;;
57107;SDS011;42987;52.916;6.542;2023-07-08T09:12:39;4.97;;;3.92;;
57107;SDS011;42987;52.916;6.542;2023-07-08T09:15:11;5.53;;;3.90;;
57107;SDS011;42987;52.916;6.542;2023-07-08T09:17:39;7.15;;;4.20;;
57107;SDS011;42987;52.916;6.542;2023-07-08T09:22:59;48.97;;;15.70;;
57107;SDS011;42987;52.916;6.542;2023-07-08T09:25:49;5.38;;;3.95;;
57107;SDS011;42987;52.916;6.542;2023-07-08T09:28:21;7.70;;;4.55;;
57107;SDS011;42987;52.916;6.542;2023-07-08T09:30:48;6.10;;;3.90;;
57107;SDS011;42987;52.916;6.542;2023-07-08T09:33:15;5.30;;;4.35;;
57107;SDS011;42987;52.916;6.542;2023-07-08T09:35:42;6.25;;;4.22;;
57107;SDS011;42987;52.916;6.542;2023-07-08T09:38:15;5.53;;;4.22;;
57107;SDS011;42987;52.916;6.542;2023-07-08T09:40:46;6.88;;;4.47;;
57107;SDS011;42987;52.916;6.542;2023-07-08T09:45:45;4.18;;;3.40;;
57107;SDS011;42987;52.916;6.542;2023-07-08T09:48:24;4.60;;;3.92;;
57107;SDS011;42987;52.916;6.542;2023-07-08T09:50:52;6.32;;;4.22;;
57107;SDS011;42987;52.916;6.542;2023-07-08T09:53:19;5.22;;;3.88;;
57107;SDS011;42987;52.916;6.542;2023-07-08T09:55:48;6.57;;;4.35;;
57107;SDS011;42987;52.916;6.542;2023-07-08T10:00:55;7.15;;;4.47;;
57107;SDS011;42987;52.916;6.542;2023-07-08T10:03:25;5.05;;;4.13;;
57107;SDS011;42987;52.916;6.542;2023-07-08T10:05:56;6.57;;;4.25;;
57107;SDS011;42987;52.916;6.542;2023-07-08T10:08:28;5.60;;;3.95;;
57107;SDS011;42987;52.916;6.542;2023-07-08T10:13:47;4.95;;;3.90;;
57107;SDS011;42987;52.916;6.542;2023-07-08T10:18:56;5.05;;;4.20;;
57107;SDS011;42987;52.916;6.542;2023-07-08T10:24:29;5.13;;;4.05;;
57107;SDS011;42987;52.916;6.542;2023-07-08T10:32:23;5.25;;;4.00;;
57107;SDS011;42987;52.916;6.542;2023-07-08T10:37:44;6.70;;;4.15;;
57107;SDS011;42987;52.916;6.542;2023-07-08T10:40:38;6.05;;;3.88;;
57107;SDS011;42987;52.916;6.542;2023-07-08T10:43:42;5.57;;;3.85;;
57107;SDS011;42987;52.916;6.542;2023-07-08T10:52:06;6.93;;;4.50;;
57107;SDS011;42987;52.916;6.542;2023-07-08T10:55:01;5.28;;;3.67;;
57107;SDS011;42987;52.916;6.542;2023-07-08T10:57:51;5.38;;;4.00;;
57107;SDS011;42987;52.916;6.542;2023-07-08T11:03:35;7.00;;;4.55;;
57107;SDS011;42987;52.916;6.542;2023-07-08T11:06:35;5.15;;;3.85;;
57107;SDS011;42987;52.916;6.542;2023-07-08T11:09:11;5.97;;;4.03;;
57107;SDS011;42987;52.916;6.542;2023-07-08T11:14:20;5.22;;;3.85;;
57107;SDS011;42987;52.916;6.542;2023-07-08T11:16:59;4.60;;;3.83;;
57107;SDS011;42987;52.916;6.542;2023-07-08T11:19:26;5.63;;;3.58;;
57107;SDS011;42987;52.916;6.542;2023-07-08T11:22:00;8.25;;;4.20;;
57107;SDS011;42987;52.916;6.542;2023-07-08T11:27:17;7.28;;;4.47;;
57107;SDS011;42987;52.916;6.542;2023-07-08T11:29:56;4.82;;;3.80;;
57107;SDS011;42987;52.916;6.542;2023-07-08T11:32:31;6.50;;;4.15;;
57107;SDS011;42987;52.916;6.542;2023-07-08T11:35:00;7.45;;;4.00;;
57107;SDS011;42987;52.916;6.542;2023-07-08T11:37:28;6.15;;;3.97;;
57107;SDS011;42987;52.916;6.542;2023-07-08T11:40:07;7.00;;;4.13;;
57107;SDS011;42987;52.916;6.542;2023-07-08T11:42:43;7.22;;;3.42;;
57107;SDS011;42987;52.916;6.542;2023-07-08T11:48:09;5.00;;;3.90;;
57107;SDS011;42987;52.916;6.542;2023-07-08T11:50:57;6.15;;;3.90;;
57107;SDS011;42987;52.916;6.542;2023-07-08T11:56:02;5.15;;;4.30;;
57107;SDS011;42987;52.916;6.542;2023-07-08T12:03:48;6.07;;;3.97;;
57107;SDS011;42987;52.916;6.542;2023-07-08T12:09:14;6.28;;;4.18;;
57107;SDS011;42987;52.916;6.542;2023-07-08T12:11:40;6.90;;;4.38;;
57107;SDS011;42987;52.916;6.542;2023-07-08T12:16:35;7.18;;;4.50;;
57107;SDS011;42987;52.916;6.542;2023-07-08T12:19:01;9.45;;;4.88;;
57107;SDS011;42987;52.916;6.542;2023-07-08T12:21:30;5.90;;;4.43;;
57107;SDS011;42987;52.916;6.542;2023-07-08T12:24:04;7.82;;;4.85;;
57107;SDS011;42987;52.916;6.542;2023-07-08T12:26:36;7.22;;;4.88;;
57107;SDS011;42987;52.916;6.542;2023-07-08T12:29:01;5.93;;;4.53;;
57107;SDS011;42987;52.916;6.542;2023-07-08T12:31:28;7.65;;;5.05;;
57107;SDS011;42987;52.916;6.542;2023-07-08T12:33:56;9.02;;;5.13;;
57107;SDS011;42987;52.916;6.542;2023-07-08T12:36:25;6.35;;;5.07;;
57107;SDS011;42987;52.916;6.542;2023-07-08T12:38:57;6.53;;;4.55;;
57107;SDS011;42987;52.916;6.542;2023-07-08T12:41:29;5.82;;;4.60;;
57107;SDS011;42987;52.916;6.542;2023-07-08T12:43:57;7.50;;;4.95;;
57107;SDS011;42987;52.916;6.542;2023-07-08T12:46:25;6.10;;;4.60;;
57107;SDS011;42987;52.916;6.542;2023-07-08T12:48:51;6.47;;;4.38;;
57107;SDS011;42987;52.916;6.542;2023-07-08T12:51:19;7.07;;;4.95;;
57107;SDS011;42987;52.916;6.542;2023-07-08T12:53:46;6.90;;;5.80;;
57107;SDS011;42987;52.916;6.542;2023-07-08T12:56:12;7.30;;;5.22;;
57107;SDS011;42987;52.916;6.542;2023-07-08T12:58:43;7.40;;;5.18;;
57107;SDS011;42987;52.916;6.542;2023-07-08T13:01:17;8.00;;;5.28;;
57107;SDS011;42987;52.916;6.542;2023-07-08T13:03:46;7.75;;;5.18;;
57107;SDS011;42987;52.916;6.542;2023-07-08T13:06:16;8.52;;;5.65;;
57107;SDS011;42987;52.916;6.542;2023-07-08T13:08:43;9.40;;;5.22;;
57107;SDS011;42987;52.916;6.542;2023-07-08T13:11:13;10.13;;;5.95;;
57107;SDS011;42987;52.916;6.542;2023-07-08T13:13:56;6.20;;;5.38;;
57107;SDS011;42987;52.916;6.542;2023-07-08T13:16:28;7.85;;;5.43;;
57107;SDS011;42987;52.916;6.542;2023-07-08T13:18:57;8.98;;;5.57;;
57107;SDS011;42987;52.916;6.542;2023-07-08T13:21:23;8.68;;;4.93;;
57107;SDS011;42987;52.916;6.542;2023-07-08T13:23:53;7.25;;;5.50;;
57107;SDS011;42987;52.916;6.542;2023-07-08T13:26:20;6.28;;;4.97;;
57107;SDS011;42987;52.916;6.542;2023-07-08T13:28:48;8.13;;;5.60;;
57107;SDS011;42987;52.916;6.542;2023-07-08T13:31:16;7.85;;;5.65;;
57107;SDS011;42987;52.916;6.542;2023-07-08T13:33:47;7.50;;;5.57;;
57107;SDS011;42987;52.916;6.542;2023-07-08T13:36:13;8.02;;;6.32;;
57107;SDS011;42987;52.916;6.542;2023-07-08T13:38:42;6.97;;;5.95;;
57107;SDS011;42987;52.916;6.542;2023-07-08T13:41:08;8.10;;;5.88;;
57107;SDS011;42987;52.916;6.542;2023-07-08T13:43:35;7.15;;;5.65;;
57107;SDS011;42987;52.916;6.542;2023-07-08T13:46:03;8.13;;;5.82;;
57107;SDS011;42987;52.916;6.542;2023-07-08T13:48:33;7.30;;;5.57;;
57107;SDS011;42987;52.916;6.542;2023-07-08T13:56:09;8.50;;;6.20;;
57107;SDS011;42987;52.916;6.542;2023-07-08T13:58:48;9.35;;;6.20;;
57107;SDS011;42987;52.916;6.542;2023-07-08T14:01:24;9.13;;;5.70;;
57107;SDS011;42987;52.916;6.542;2023-07-08T14:03:51;8.43;;;6.65;;
57107;SDS011;42987;52.916;6.542;2023-07-08T14:06:19;8.50;;;7.00;;
57107;SDS011;42987;52.916;6.542;2023-07-08T14:08:46;8.65;;;6.32;;
57107;SDS011;42987;52.916;6.542;2023-07-08T14:11:12;9.40;;;6.13;;
57107;SDS011;42987;52.916;6.542;2023-07-08T14:13:38;11.57;;;6.35;;
57107;SDS011;42987;52.916;6.542;2023-07-08T14:16:04;8.75;;;6.28;;
57107;SDS011;42987;52.916;6.542;2023-07-08T14:18:49;8.23;;;6.20;;
57107;SDS011;42987;52.916;6.542;2023-07-08T14:21:15;9.20;;;5.97;;
57107;SDS011;42987;52.916;6.542;2023-07-08T14:23:41;9.45;;;6.68;;
57107;SDS011;42987;52.916;6.542;2023-07-08T14:26:10;7.80;;;5.70;;
57107;SDS011;42987;52.916;6.542;2023-07-08T14:28:37;6.93;;;5.93;;
57107;SDS011;42987;52.916;6.542;2023-07-08T14:31:04;8.68;;;6.03;;
57107;SDS011;42987;52.916;6.542;2023-07-08T14:33:38;8.23;;;6.50;;
57107;SDS011;42987;52.916;6.542;2023-07-08T14:36:07;7.72;;;6.50;;
57107;SDS011;42987;52.916;6.542;2023-07-08T14:38:34;10.93;;;6.22;;
57107;SDS011;42987;52.916;6.542;2023-07-08T14:41:00;7.80;;;6.20;;
57107;SDS011;42987;52.916;6.542;2023-07-08T14:43:27;8.63;;;5.53;;
57107;SDS011;42987;52.916;6.542;2023-07-08T14:45:55;9.32;;;5.93;;
57107;SDS011;42987;52.916;6.542;2023-07-08T14:48:24;8.55;;;6.50;;
57107;SDS011;42987;52.916;6.542;2023-07-08T14:50:50;7.35;;;6.15;;
57107;SDS011;42987;52.916;6.542;2023-07-08T14:53:17;9.30;;;6.32;;
57107;SDS011;42987;52.916;6.542;2023-07-08T14:55:47;8.68;;;6.68;;
57107;SDS011;42987;52.916;6.542;2023-07-08T14:58:22;9.65;;;6.30;;
57107;SDS011;42987;52.916;6.542;2023-07-08T15:00:53;9.35;;;6.35;;
57107;SDS011;42987;52.916;6.542;2023-07-08T15:03:23;7.78;;;6.35;;
57107;SDS011;42987;52.916;6.542;2023-07-08T15:05:49;8.85;;;6.63;;
57107;SDS011;42987;52.916;6.542;2023-07-08T15:08:15;8.07;;;6.10;;
57107;SDS011;42987;52.916;6.542;2023-07-08T15:10:46;8.65;;;6.07;;
57107;SDS011;42987;52.916;6.542;2023-07-08T15:13:14;8.57;;;5.70;;
57107;SDS011;42987;52.916;6.542;2023-07-08T15:15:40;10.05;;;5.93;;
57107;SDS011;42987;52.916;6.542;2023-07-08T15:18:11;9.55;;;6.32;;
57107;SDS011;42987;52.916;6.542;2023-07-08T15:20:38;7.68;;;5.95;;
57107;SDS011;42987;52.916;6.542;2023-07-08T15:23:04;7.93;;;5.80;;
57107;SDS011;42987;52.916;6.542;2023-07-08T15:25:31;8.07;;;5.70;;
57107;SDS011;42987;52.916;6.542;2023-07-08T15:27:59;9.18;;;6.15;;
57107;SDS011;42987;52.916;6.542;2023-07-08T15:30:30;6.95;;;6.13;;
57107;SDS011;42987;52.916;6.542;2023-07-08T15:32:56;8.63;;;6.07;;
57107;SDS011;42987;52.916;6.542;2023-07-08T15:35:27;9.50;;;5.68;;
57107;SDS011;42987;52.916;6.542;2023-07-08T15:37:59;8.27;;;5.85;;
57107;SDS011;42987;52.916;6.542;2023-07-08T15:40:28;7.97;;;6.15;;
57107;SDS011;42987;52.916;6.542;2023-07-08T15:42:56;7.70;;;5.88;;
57107;SDS011;42987;52.916;6.542;2023-07-08T15:45:25;7.17;;;6.17;;
57107;SDS011;42987;52.916;6.542;2023-07-08T15:47:56;7.35;;;6.43;;
57107;SDS011;42987;52.916;6.542;2023-07-08T15:50:23;8.15;;;5.80;;
57107;SDS011;42987;52.916;6.542;2023-07-08T15:52:50;7.63;;;6.22;;
57107;SDS011;42987;52.916;6.542;2023-07-08T15:55:23;10.00;;;6.05;;
57107;SDS011;42987;52.916;6.542;2023-07-08T15:57:56;8.00;;;6.13;;
57107;SDS011;42987;52.916;6.542;2023-07-08T16:00:26;8.15;;;5.97;;
57107;SDS011;42987;52.916;6.542;2023-07-08T16:02:56;9.57;;;6.18;;
57107;SDS011;42987;52.916;6.542;2023-07-08T16:05:24;7.95;;;5.93;;
57107;SDS011;42987;52.916;6.542;2023-07-08T16:07:51;9.23;;;6.28;;
57107;SDS011;42987;52.916;6.542;2023-07-08T16:10:18;7.90;;;5.90;;
57107;SDS011;42987;52.916;6.542;2023-07-08T16:12:46;8.45;;;6.32;;
57107;SDS011;42987;52.916;6.542;2023-07-08T16:15:14;8.32;;;6.15;;
57107;SDS011;42987;52.916;6.542;2023-07-08T16:17:42;9.55;;;6.43;;